Latest Coastal Weather Observations for Newcastle Nobbys

IDN60701

Issued at 1:25 pm EDT Thursday 23 October 2014 (issued every 10 minutes, with the page automatically refreshed every 10 minutes)

About coastal observations | Map of coastal stations | Coastal observations for NSW | Marine services | Other Formats
Station Details ID: 061055 Name: NEWCASTLE NOBBYS SIGNAL STATION AWS Lat: -32.92 Lon: 151.80 Height: 33.0 m
Data from the previous 72 hours. | See also: Recent months at Newcastle Nobbys
Date/Time
EDT
Temp

°C
Wind Pressure Rain
since 9am
mm
Weather Cloud Vis
km
Sea
Height
m
Swell
Dir
 
Speed
knots
Gust
knots
hPa Trend Height
m
Period
s
Dir
23/01:00pm 22.1 ENE 8 11 - - 0.0 - - - - - - -
23/12:30pm 22.9 ENE 8 11 - - 0.0 - - - - - - -
23/12:00pm 24.0 N 7 10 - - 0.0 - - - - - - -
23/11:30am 25.7 N 6 8 - - 0.0 - - - - - - -
23/11:00am 23.5 N 7 10 - - 0.0 - - - - - - -
23/10:30am 22.4 N 7 10 - - 0.0 - - - - - - -
23/10:00am 21.3 N 7 10 - - 0.0 - - - - - - -
23/09:30am 20.4 NNW 8 10 - - 0.0 - - - - - - -
23/09:00am 18.4 NNW 8 11 - - 0.0 - - - - - - -
23/08:30am 17.1 NNW 8 10 - - 0.0 - - - - - - -
23/08:00am 15.6 NNW 7 11 - - 0.0 - - - - - - -
23/07:30am 14.7 N 7 9 - - 0.0 - - - - - - -
23/07:00am 14.6 N 7 9 - - 0.0 - - - - - - -
23/06:30am 14.1 N 6 7 - - 0.0 - - - - - - -
23/06:00am 14.4 N 7 8 - - 0.0 - - - - - - -
23/05:30am 14.6 N 5 7 - - 0.0 - - - - - - -
23/05:00am 15.2 N 7 8 - - 0.0 - - - - - - -
23/04:30am 15.4 N 7 8 - - 0.0 - - - - - - -
23/04:00am 15.3 N 6 8 - - 0.0 - - - - - - -
23/03:30am 15.7 N 6 7 - - 0.0 - - - - - - -
23/03:00am 15.9 N 4 5 - - 0.0 - - - - - - -
23/02:30am 15.9 N 4 5 - - 0.0 - - - - - - -
23/02:00am 15.9 NNE 5 6 - - 0.0 - - - - - - -
23/01:30am 16.2 N 4 6 - - 0.0 - - - - - - -
23/01:00am 16.6 NNE 5 6 - - 0.0 - - - - - - -
23/12:30am 16.8 NNE 6 9 - - 0.0 - - - - - - -
23/12:00am 16.9 NNE 5 7 - - 0.0 - - - - - - -
 
Date/Time
EDT
Temp

°C
Wind Pressure Rain
since 9am
mm
Weather Cloud Vis
km
Sea
Height
m
Swell
Dir
 
Speed
knots
Gust
knots
hPa Trend Height
m
Period
s
Dir
22/11:30pm 17.1 NNE 8 9 - - 0.0 - - - - - - -
22/11:00pm 17.3 NE 6 9 - - 0.0 - - - - - - -
22/10:30pm 17.6 NNE 8 11 - - 0.0 - - - - - - -
22/10:00pm 17.5 NE 9 12 - - 0.0 - - - - - - -
22/09:30pm 17.7 NE 9 15 - - 0.0 - - - - - - -
22/09:00pm 18.0 NE 12 17 - - 0.0 - - - - - - -
22/08:30pm 18.2 NE 14 18 - - 0.0 - - - - - - -
22/08:00pm 18.4 NE 13 16 - - 0.0 - - - - - - -
22/07:30pm 18.6 NE 11 14 - - 0.0 - - - - - - -
22/07:00pm 18.6 ENE 11 14 - - 0.0 - - - - - - -
22/06:30pm 18.9 ENE 13 17 - - 0.0 - - - - - - -
22/06:00pm 19.2 ENE 15 18 - - 0.0 - - - - - - -
22/05:30pm 19.3 ENE 17 20 - - 0.0 - - - - - - -
22/05:00pm 19.2 ENE 18 21 - - 0.0 - - - - - - -
22/04:30pm 19.4 ENE 17 21 - - 0.0 - - - - - - -
22/04:00pm 19.5 E 17 20 - - 0.0 - - - - - - -
22/03:30pm 19.6 E 16 20 - - 0.0 - - - - - - -
22/03:00pm 19.6 E 16 19 - - 0.0 - - - - - - -
22/02:30pm 19.7 E 15 18 - - 0.0 - - - - - - -
22/02:00pm 19.9 E 13 16 - - 0.0 - - - - - - -
22/01:30pm 20.0 E 13 15 - - 0.0 - - - - - - -
22/01:00pm 19.8 E 11 13 - - 0.0 - - - - - - -
22/12:30pm 19.8 ESE 12 14 - - 0.0 - - - - - - -
22/12:00pm 19.4 ESE 10 11 - - 0.0 - - - - - - -
22/11:30am 19.6 ESE 8 9 - - 0.0 - - - - - - -
22/11:00am 19.6 ESE 8 9 - - 0.0 - - - - - - -
22/10:30am 19.2 ESE 5 7 - - 0.0 - - - - - - -
22/10:00am 18.9 E 3 6 - - 0.0 - - - - - - -
22/09:30am 18.8 NNE 2 3 - - 0.0 - - - - - - -
22/09:00am 18.0 N 2 4 - - 0.0 - - - - - - -
22/08:30am 16.8 N 4 6 - - 0.0 - - - - - - -
22/08:00am 16.6 NNE 5 8 - - 0.0 - - - - - - -
22/07:30am 16.3 ENE 6 7 - - 0.0 - - - - - - -
22/07:00am 15.9 E 11 13 - - 0.0 - - - - - - -
22/06:30am 15.7 E 8 10 - - 0.0 - - - - - - -
22/06:00am 15.6 NNE 6 8 - - 0.0 - - - - - - -
22/05:30am 15.1 ENE 2 4 - - 0.0 - - - - - - -
22/05:00am 14.7 N 4 6 - - 0.0 - - - - - - -
22/04:30am 14.9 N 4 6 - - 0.0 - - - - - - -
22/04:00am 14.8 N 9 11 - - 0.0 - - - - - - -
22/03:30am 15.7 N 5 7 - - 0.0 - - - - - - -
22/03:00am 16.4 ENE 5 7 - - 0.0 - - - - - - -
22/02:30am 16.5 ENE 6 8 - - 0.0 - - - - - - -
22/02:00am 16.6 NE 3 5 - - 0.0 - - - - - - -
22/01:30am 16.5 ENE 4 6 - - 0.0 - - - - - - -
22/01:00am 16.5 NE 5 8 - - 0.0 - - - - - - -
22/12:30am 16.7 NE 3 6 - - 0.0 - - - - - - -
22/12:00am 16.3 N 1 3 - - 0.0 - - - - - - -
 
Date/Time
EDT
Temp

°C
Wind Pressure Rain
since 9am
mm
Weather Cloud Vis
km
Sea
Height
m
Swell
Dir
 
Speed
knots
Gust
knots
hPa Trend Height
m
Period
s
Dir
21/11:30pm 16.2 NNE 5 6 - - 0.0 - - - - - - -
21/11:00pm 16.4 NE 6 8 - - 0.0 - - - - - - -
21/10:30pm 16.6 E 11 13 - - 0.0 - - - - - - -
21/10:00pm 16.4 E 8 10 - - 0.0 - - - - - - -
21/09:30pm 16.3 E 8 11 - - 0.0 - - - - - - -
21/09:00pm 16.3 E 10 13 - - 0.0 - - - - - - -
21/08:30pm 16.5 E 10 12 - - 0.0 - - - - - - -
21/08:00pm 16.4 E 10 13 - - 0.0 - - - - - - -
21/07:30pm 16.1 E 11 13 - - 0.0 - - - - - - -
21/07:00pm 16.3 ESE 10 12 - - 0.0 - - - - - - -
21/06:30pm 16.8 ESE 10 12 - - 0.0 - - - - - - -
21/06:00pm 17.3 ESE 9 10 - - 0.0 - - - - - - -
21/05:30pm 17.4 ESE 8 10 - - 0.0 - - - - - - -
21/05:00pm 17.6 ESE 9 11 - - 0.0 - - - - - - -
21/04:30pm 17.6 E 11 13 - - 0.0 - - - - - - -
21/04:00pm 17.6 E 9 11 - - 0.0 - - - - - - -
21/03:30pm 18.0 E 9 11 - - 0.0 - - - - - - -
21/03:00pm 17.9 ESE 10 11 - - 0.0 - - - - - - -
21/02:30pm 18.0 E 11 13 - - 0.0 - - - - - - -
21/02:00pm 18.3 E 7 9 - - 0.0 - - - - - - -
21/01:30pm 17.6 ESE 9 11 - - 0.0 - - - - - - -
21/01:00pm 17.2 ESE 11 14 - - 0.0 - - - - - - -
21/12:30pm 18.0 ESE 7 9 - - 0.0 - - - - - - -
21/12:00pm 17.9 ESE 8 11 - - 0.0 - - - - - - -
21/11:30am 17.9 E 9 11 - - 0.0 - - - - - - -
21/11:00am 17.7 ESE 8 10 - - 0.0 - - - - - - -
21/10:30am 17.5 ESE 9 12 - - 0.0 - - - - - - -
21/10:00am 17.1 ESE 12 14 - - 0.0 - - - - - - -
21/09:30am 16.9 ESE 13 15 - - 0.0 - - - - - - -
21/09:00am 16.8 ESE 12 15 - - 0.2 - - - - - - -
21/08:30am 16.8 ESE 11 14 - - 0.2 - - - - - - -
21/08:00am 16.8 SE 12 14 - - 0.2 - - - - - - -
21/07:30am 16.6 SE 13 18 - - 0.2 - - - - - - -
21/07:00am 16.7 SE 13 17 - - 0.2 - - - - - - -
21/06:30am 16.7 SE 13 16 - - 0.2 - - - - - - -
21/06:00am 16.8 SE 12 15 - - 0.2 - - - - - - -
21/05:30am 16.6 ESE 12 17 - - 0.2 - - - - - - -
21/05:00am 16.5 ESE 11 14 - - 0.2 - - - - - - -
21/04:30am 16.3 ESE 12 16 - - 0.2 - - - - - - -
21/04:00am 16.6 ESE 13 17 - - 0.2 - - - - - - -
21/03:30am 16.0 SE 14 19 - - 0.2 - - - - - - -
21/03:00am 16.9 ESE 12 14 - - 0.2 - - - - - - -
21/02:30am 16.6 ESE 11 14 - - 0.2 - - - - - - -
21/02:00am 16.9 E 12 15 - - 0.2 - - - - - - -
21/01:30am 17.0 ESE 11 13 - - 0.2 - - - - - - -
21/01:00am 17.0 ESE 12 14 - - 0.2 - - - - - - -
21/12:30am 17.0 ESE 13 14 - - 0.2 - - - - - - -
21/12:00am 17.0 ESE 14 17 - - 0.2 - - - - - - -
 
Date/Time
EDT
Temp

°C
Wind Pressure Rain
since 9am
mm
Weather Cloud Vis
km
Sea
Height
m
Swell
Dir
 
Speed
knots
Gust
knots
hPa Trend Height
m
Period
s
Dir
20/11:30pm 17.2 ESE 14 16 - - 0.2 - - - - - - -
20/11:00pm 17.3 ESE 16 18 - - 0.2 - - - - - - -
20/10:30pm 17.1 SE 16 19 - - 0.2 - - - - - - -
20/10:00pm 17.1 SE 15 18 - - 0.2 - - - - - - -
20/09:30pm 16.9 SE 15 21 - - 0.2 - - - - - - -
20/09:00pm 16.9 SSE 14 18 - - 0.2 - - - - - - -
20/08:30pm 16.5 SE 17 21 - - 0.2 - - - - - - -
20/08:00pm 17.3 SSE 14 17 - - 0.2 - - - - - - -
20/07:30pm 17.0 SSE 14 19 - - 0.2 - - - - - - -
20/07:00pm 16.9 SSE 16 20 - - 0.2 - - - - - - -
20/06:30pm 17.1 SSE 14 20 - - 0.2 - - - - - - -
20/06:00pm 16.5 SSE 18 22 - - 0.2 - - - - - - -
20/05:30pm 16.9 S 19 23 - - 0.2 - - - - - - -
20/05:00pm 17.7 SSE 14 20 - - 0.2 - - - - - - -
20/04:30pm 17.0 SSE 13 17 - - 0.2 - - - - - - -
20/04:00pm 16.7 SSE 18 21 - - 0.2 - - - - - - -
20/03:30pm 17.6 S 15 18 - - 0.0 - - - - - - -
20/03:00pm 17.5 SSW 12 15 - - 0.0 - - - - - - -
20/02:30pm 18.4 SSW 13 18 - - 0.0 - - - - - - -
20/02:00pm 19.3 SSW 12 20 - - 0.0 - - - - - - -
20/01:30pm 18.7 SSW 13 18 - - 0.0 - - - - - - -

Other Formats:

Comma delimited format used in spreadsheet applications
http://www.bom.gov.au/fwo/IDN60701/IDN60701.94774.axf

JavaScript Object Notation format (JSON) in row-major order
http://www.bom.gov.au/fwo/IDN60701/IDN60701.94774.json